sensor_id;sensor_type;location;lat;lon;timestamp;pressure;altitude;pressure_sealevel;temperature;humidity
77954;BME280;67151;52.544;6.034;2023-02-04T00:00:06;103080;;;20.8;42.1
77954;BME280;67151;52.544;6.034;2023-02-04T00:00:21;103080;;;20.8;42.1
77954;BME280;67151;52.544;6.034;2023-02-04T00:00:36;103080;;;20.8;42.1
77954;BME280;67151;52.544;6.034;2023-02-04T00:00:51;103090.00000000001;;;20.9;42.1
77954;BME280;67151;52.544;6.034;2023-02-04T00:01:06;103080;;;20.8;42.2
77954;BME280;67151;52.544;6.034;2023-02-04T00:01:21;103080;;;20.9;42.2
77954;BME280;67151;52.544;6.034;2023-02-04T00:01:36;103080;;;20.9;42.2
77954;BME280;67151;52.544;6.034;2023-02-04T00:01:51;103090.00000000001;;;20.9;42.2
77954;BME280;67151;52.544;6.034;2023-02-04T00:02:06;103080;;;20.8;42.2
77954;BME280;67151;52.544;6.034;2023-02-04T00:02:21;103080;;;20.8;42.2
77954;BME280;67151;52.544;6.034;2023-02-04T00:02:36;103090.00000000001;;;20.9;42.1
77954;BME280;67151;52.544;6.034;2023-02-04T00:02:51;103090.00000000001;;;20.9;42.1
77954;BME280;67151;52.544;6.034;2023-02-04T00:03:06;103080;;;20.9;42.1
77954;BME280;67151;52.544;6.034;2023-02-04T00:03:21;103080;;;20.9;42.1
77954;BME280;67151;52.544;6.034;2023-02-04T00:03:36;103090.00000000001;;;20.9;42.2
77954;BME280;67151;52.544;6.034;2023-02-04T00:03:51;103080;;;20.9;42.1
77954;BME280;67151;52.544;6.034;2023-02-04T00:04:06;103080;;;20.8;42.1
77954;BME280;67151;52.544;6.034;2023-02-04T00:04:21;103080;;;20.8;42.2
77954;BME280;67151;52.544;6.034;2023-02-04T00:04:36;103080;;;20.8;42.2
77954;BME280;67151;52.544;6.034;2023-02-04T00:04:51;103080;;;20.8;42.2
77954;BME280;67151;52.544;6.034;2023-02-04T00:05:06;103080;;;20.8;42.2
77954;BME280;67151;52.544;6.034;2023-02-04T00:05:21;103080;;;20.8;42.2
77954;BME280;67151;52.544;6.034;2023-02-04T00:05:36;103080;;;20.8;42.2
77954;BME280;67151;52.544;6.034;2023-02-04T00:05:51;103080;;;20.8;42.2
77954;BME280;67151;52.544;6.034;2023-02-04T00:06:06;103080;;;20.9;42.2
77954;BME280;67151;52.544;6.034;2023-02-04T00:06:21;103090.00000000001;;;20.8;42.2
77954;BME280;67151;52.544;6.034;2023-02-04T00:06:36;103080;;;20.8;42.2
77954;BME280;67151;52.544;6.034;2023-02-04T00:06:51;103080;;;20.8;42.2
77954;BME280;67151;52.544;6.034;2023-02-04T00:07:06;103080;;;20.8;42.2
77954;BME280;67151;52.544;6.034;2023-02-04T00:07:21;103080;;;20.8;42.2
77954;BME280;67151;52.544;6.034;2023-02-04T00:07:36;103090.00000000001;;;20.8;42.2
77954;BME280;67151;52.544;6.034;2023-02-04T00:07:51;103080;;;20.8;42.2
77954;BME280;67151;52.544;6.034;2023-02-04T00:08:06;103080;;;20.9;42.3
77954;BME280;67151;52.544;6.034;2023-02-04T00:08:21;103080;;;20.9;42.2
77954;BME280;67151;52.544;6.034;2023-02-04T00:08:36;103080;;;20.8;42.2
77954;BME280;67151;52.544;6.034;2023-02-04T00:08:51;103080;;;20.8;42.2
77954;BME280;67151;52.544;6.034;2023-02-04T00:09:06;103080;;;20.8;42.2
77954;BME280;67151;52.544;6.034;2023-02-04T00:09:21;103080;;;20.9;42.2
77954;BME280;67151;52.544;6.034;2023-02-04T00:09:36;103080;;;20.8;42.2
77954;BME280;67151;52.544;6.034;2023-02-04T00:09:51;103080;;;20.8;42.2
77954;BME280;67151;52.544;6.034;2023-02-04T00:10:06;103090.00000000001;;;20.8;42.2
77954;BME280;67151;52.544;6.034;2023-02-04T00:10:21;103080;;;20.8;42.2
77954;BME280;67151;52.544;6.034;2023-02-04T00:10:36;103080;;;20.8;42.2
77954;BME280;67151;52.544;6.034;2023-02-04T00:10:51;103080;;;20.8;42.2
77954;BME280;67151;52.544;6.034;2023-02-04T00:11:06;103080;;;20.8;42.3
77954;BME280;67151;52.544;6.034;2023-02-04T00:11:21;103090.00000000001;;;20.9;42.2
77954;BME280;67151;52.544;6.034;2023-02-04T00:11:36;103090.00000000001;;;20.9;42.2
77954;BME280;67151;52.544;6.034;2023-02-04T00:11:51;103080;;;20.8;42.5
77954;BME280;67151;52.544;6.034;2023-02-04T00:12:06;103090.00000000001;;;20.9;42.2
77954;BME280;67151;52.544;6.034;2023-02-04T00:12:21;103090.00000000001;;;20.9;42.2
77954;BME280;67151;52.544;6.034;2023-02-04T00:12:36;103090.00000000001;;;20.8;42.1
77954;BME280;67151;52.544;6.034;2023-02-04T00:12:51;103090.00000000001;;;20.8;42.2
77954;BME280;67151;52.544;6.034;2023-02-04T00:13:06;103090.00000000001;;;20.8;42.2
77954;BME280;67151;52.544;6.034;2023-02-04T00:13:21;103100;;;20.9;42.1
77954;BME280;67151;52.544;6.034;2023-02-04T00:13:36;103090.00000000001;;;20.9;42.2
77954;BME280;67151;52.544;6.034;2023-02-04T00:13:51;103090.00000000001;;;20.8;42.2
77954;BME280;67151;52.544;6.034;2023-02-04T00:14:06;103090.00000000001;;;20.8;42.2
77954;BME280;67151;52.544;6.034;2023-02-04T00:14:21;103100;;;20.8;42.3
77954;BME280;67151;52.544;6.034;2023-02-04T00:14:36;103090.00000000001;;;20.8;42.3
77954;BME280;67151;52.544;6.034;2023-02-04T00:14:51;103100;;;20.8;42.2
77954;BME280;67151;52.544;6.034;2023-02-04T00:15:06;103090.00000000001;;;20.8;42.2
77954;BME280;67151;52.544;6.034;2023-02-04T00:15:21;103090.00000000001;;;20.9;42.2
77954;BME280;67151;52.544;6.034;2023-02-04T00:15:36;103090.00000000001;;;20.9;42.2
77954;BME280;67151;52.544;6.034;2023-02-04T00:15:51;103100;;;20.8;42.2
77954;BME280;67151;52.544;6.034;2023-02-04T00:16:06;103090.00000000001;;;20.8;42.2
77954;BME280;67151;52.544;6.034;2023-02-04T00:16:21;103100;;;20.9;42.2
77954;BME280;67151;52.544;6.034;2023-02-04T00:16:36;103090.00000000001;;;20.9;42.2
77954;BME280;67151;52.544;6.034;2023-02-04T00:16:51;103100;;;20.8;42.1
77954;BME280;67151;52.544;6.034;2023-02-04T00:17:06;103100;;;20.8;42.2
77954;BME280;67151;52.544;6.034;2023-02-04T00:17:21;103100;;;20.8;42.2
77954;BME280;67151;52.544;6.034;2023-02-04T00:17:36;103090.00000000001;;;20.8;42.2
77954;BME280;67151;52.544;6.034;2023-02-04T00:17:51;103100;;;20.8;42.2
77954;BME280;67151;52.544;6.034;2023-02-04T00:18:06;103100;;;20.8;42.2
77954;BME280;67151;52.544;6.034;2023-02-04T00:18:21;103100;;;20.8;42.2
77954;BME280;67151;52.544;6.034;2023-02-04T00:18:36;103100;;;20.9;42.2
77954;BME280;67151;52.544;6.034;2023-02-04T00:18:51;103100;;;20.9;42.2
77954;BME280;67151;52.544;6.034;2023-02-04T00:19:06;103090.00000000001;;;20.8;42.2
77954;BME280;67151;52.544;6.034;2023-02-04T00:19:21;103100;;;20.9;42.2
77954;BME280;67151;52.544;6.034;2023-02-04T00:19:36;103109.99999999999;;;20.8;42.2
77954;BME280;67151;52.544;6.034;2023-02-04T00:19:51;103109.99999999999;;;20.9;42.2
77954;BME280;67151;52.544;6.034;2023-02-04T00:20:06;103109.99999999999;;;20.8;42.3
77954;BME280;67151;52.544;6.034;2023-02-04T00:20:21;103100;;;20.8;42.2
77954;BME280;67151;52.544;6.034;2023-02-04T00:20:36;103100;;;20.8;42.2
77954;BME280;67151;52.544;6.034;2023-02-04T00:20:51;103100;;;20.8;42.2
77954;BME280;67151;52.544;6.034;2023-02-04T00:21:06;103109.99999999999;;;20.8;42.2
77954;BME280;67151;52.544;6.034;2023-02-04T00:21:21;103100;;;20.8;42.2
77954;BME280;67151;52.544;6.034;2023-02-04T00:21:36;103100;;;20.8;42.2
77954;BME280;67151;52.544;6.034;2023-02-04T00:21:51;103100;;;20.9;42.2
77954;BME280;67151;52.544;6.034;2023-02-04T00:22:06;103109.99999999999;;;20.9;42.2
77954;BME280;67151;52.544;6.034;2023-02-04T00:22:21;103109.99999999999;;;20.8;42.2
77954;BME280;67151;52.544;6.034;2023-02-04T00:22:36;103100;;;20.8;42.2
77954;BME280;67151;52.544;6.034;2023-02-04T00:22:51;103109.99999999999;;;20.8;42.2
77954;BME280;67151;52.544;6.034;2023-02-04T00:23:06;103109.99999999999;;;20.9;42.2
77954;BME280;67151;52.544;6.034;2023-02-04T00:23:21;103109.99999999999;;;20.8;42.2
77954;BME280;67151;52.544;6.034;2023-02-04T00:23:36;103100;;;20.8;42.2
77954;BME280;67151;52.544;6.034;2023-02-04T00:23:51;103109.99999999999;;;20.8;42.2
77954;BME280;67151;52.544;6.034;2023-02-04T00:24:06;103100;;;20.8;42.2
77954;BME280;67151;52.544;6.034;2023-02-04T00:24:21;103100;;;20.8;42.2
77954;BME280;67151;52.544;6.034;2023-02-04T00:24:36;103100;;;20.8;42.2
77954;BME280;67151;52.544;6.034;2023-02-04T00:24:51;103109.99999999999;;;20.8;42.2
77954;BME280;67151;52.544;6.034;2023-02-04T00:25:06;103109.99999999999;;;20.8;42.2
77954;BME280;67151;52.544;6.034;2023-02-04T00:25:21;103109.99999999999;;;20.9;42.2
77954;BME280;67151;52.544;6.034;2023-02-04T00:25:36;103109.99999999999;;;20.8;42.2
77954;BME280;67151;52.544;6.034;2023-02-04T00:25:51;103100;;;20.8;42.2
77954;BME280;67151;52.544;6.034;2023-02-04T00:26:06;103100;;;20.8;42.3
77954;BME280;67151;52.544;6.034;2023-02-04T00:26:21;103109.99999999999;;;20.8;42.3
77954;BME280;67151;52.544;6.034;2023-02-04T00:26:36;103109.99999999999;;;20.8;42.3
77954;BME280;67151;52.544;6.034;2023-02-04T00:26:51;103109.99999999999;;;20.8;42.3
77954;BME280;67151;52.544;6.034;2023-02-04T00:27:06;103100;;;20.9;42.2
77954;BME280;67151;52.544;6.034;2023-02-04T00:27:21;103109.99999999999;;;20.8;42.2
77954;BME280;67151;52.544;6.034;2023-02-04T00:27:36;103100;;;20.9;42.1
77954;BME280;67151;52.544;6.034;2023-02-04T00:27:51;103100;;;20.8;42.2
77954;BME280;67151;52.544;6.034;2023-02-04T00:28:06;103109.99999999999;;;20.9;42.2
77954;BME280;67151;52.544;6.034;2023-02-04T00:28:21;103100;;;20.8;42.2
77954;BME280;67151;52.544;6.034;2023-02-04T00:28:36;103100;;;20.9;42.2
77954;BME280;67151;52.544;6.034;2023-02-04T00:28:51;103109.99999999999;;;20.8;42.2
77954;BME280;67151;52.544;6.034;2023-02-04T00:29:06;103100;;;20.8;42.2
77954;BME280;67151;52.544;6.034;2023-02-04T00:29:21;103109.99999999999;;;20.8;42.2
77954;BME280;67151;52.544;6.034;2023-02-04T00:29:36;103109.99999999999;;;20.8;42.1
77954;BME280;67151;52.544;6.034;2023-02-04T00:29:51;103100;;;20.9;42.2
77954;BME280;67151;52.544;6.034;2023-02-04T00:30:06;103109.99999999999;;;20.9;42.2
77954;BME280;67151;52.544;6.034;2023-02-04T00:30:21;103109.99999999999;;;20.9;42.2
77954;BME280;67151;52.544;6.034;2023-02-04T00:30:36;103100;;;20.9;42.2
77954;BME280;67151;52.544;6.034;2023-02-04T00:30:51;103100;;;20.8;42.2
77954;BME280;67151;52.544;6.034;2023-02-04T00:31:06;103109.99999999999;;;20.8;42.2
77954;BME280;67151;52.544;6.034;2023-02-04T00:31:21;103109.99999999999;;;20.8;42.2
77954;BME280;67151;52.544;6.034;2023-02-04T00:31:36;103100;;;20.8;42.2
77954;BME280;67151;52.544;6.034;2023-02-04T00:31:51;103100;;;20.8;42.3
77954;BME280;67151;52.544;6.034;2023-02-04T00:32:06;103109.99999999999;;;20.8;42.2
77954;BME280;67151;52.544;6.034;2023-02-04T00:32:21;103100;;;20.8;42.3
77954;BME280;67151;52.544;6.034;2023-02-04T00:32:36;103109.99999999999;;;20.9;42.2
77954;BME280;67151;52.544;6.034;2023-02-04T00:32:51;103109.99999999999;;;20.8;42.2
77954;BME280;67151;52.544;6.034;2023-02-04T00:33:06;103109.99999999999;;;20.8;42.2
77954;BME280;67151;52.544;6.034;2023-02-04T00:33:21;103109.99999999999;;;20.8;42.1
77954;BME280;67151;52.544;6.034;2023-02-04T00:33:36;103100;;;20.8;42.2
77954;BME280;67151;52.544;6.034;2023-02-04T00:33:51;103100;;;20.8;42.3
77954;BME280;67151;52.544;6.034;2023-02-04T00:34:06;103109.99999999999;;;20.8;42.2
77954;BME280;67151;52.544;6.034;2023-02-04T00:34:21;103109.99999999999;;;20.8;42.2
77954;BME280;67151;52.544;6.034;2023-02-04T00:34:36;103100;;;20.9;42.2
77954;BME280;67151;52.544;6.034;2023-02-04T00:34:51;103100;;;20.9;42.2
77954;BME280;67151;52.544;6.034;2023-02-04T00:35:06;103109.99999999999;;;20.9;42.2
77954;BME280;67151;52.544;6.034;2023-02-04T00:35:21;103109.99999999999;;;20.9;42.2
77954;BME280;67151;52.544;6.034;2023-02-04T00:35:36;103109.99999999999;;;20.9;42.2
77954;BME280;67151;52.544;6.034;2023-02-04T00:35:51;103100;;;20.9;42.1
77954;BME280;67151;52.544;6.034;2023-02-04T00:36:06;103109.99999999999;;;20.9;42.1
77954;BME280;67151;52.544;6.034;2023-02-04T00:36:21;103109.99999999999;;;20.9;42.1
77954;BME280;67151;52.544;6.034;2023-02-04T00:36:36;103109.99999999999;;;20.9;42.1
77954;BME280;67151;52.544;6.034;2023-02-04T00:36:51;103109.99999999999;;;20.9;42.1
77954;BME280;67151;52.544;6.034;2023-02-04T00:37:06;103109.99999999999;;;20.9;42.1
77954;BME280;67151;52.544;6.034;2023-02-04T00:37:21;103109.99999999999;;;20.9;42.1
77954;BME280;67151;52.544;6.034;2023-02-04T00:37:36;103109.99999999999;;;20.9;42.1
77954;BME280;67151;52.544;6.034;2023-02-04T00:37:51;103109.99999999999;;;20.9;42.1
77954;BME280;67151;52.544;6.034;2023-02-04T00:38:06;103109.99999999999;;;20.9;42.2
77954;BME280;67151;52.544;6.034;2023-02-04T00:38:21;103109.99999999999;;;20.9;42.1
77954;BME280;67151;52.544;6.034;2023-02-04T00:38:36;103109.99999999999;;;20.9;42.2
77954;BME280;67151;52.544;6.034;2023-02-04T00:38:51;103109.99999999999;;;20.9;42.1
77954;BME280;67151;52.544;6.034;2023-02-04T00:39:06;103109.99999999999;;;20.9;42.2
77954;BME280;67151;52.544;6.034;2023-02-04T00:39:21;103109.99999999999;;;20.9;42.1
77954;BME280;67151;52.544;6.034;2023-02-04T00:39:36;103109.99999999999;;;20.9;42.1
77954;BME280;67151;52.544;6.034;2023-02-04T00:39:51;103109.99999999999;;;20.9;42.2
77954;BME280;67151;52.544;6.034;2023-02-04T00:40:06;103120;;;20.9;42.2
77954;BME280;67151;52.544;6.034;2023-02-04T00:40:21;103109.99999999999;;;20.9;42.2
77954;BME280;67151;52.544;6.034;2023-02-04T00:40:36;103109.99999999999;;;20.9;42.2
77954;BME280;67151;52.544;6.034;2023-02-04T00:40:51;103120;;;20.9;42.1
77954;BME280;67151;52.544;6.034;2023-02-04T00:41:06;103109.99999999999;;;20.9;42.1
77954;BME280;67151;52.544;6.034;2023-02-04T00:41:21;103109.99999999999;;;20.9;42.1
77954;BME280;67151;52.544;6.034;2023-02-04T00:41:36;103120;;;20.8;42.1
77954;BME280;67151;52.544;6.034;2023-02-04T00:41:51;103120;;;20.8;42.2
77954;BME280;67151;52.544;6.034;2023-02-04T00:42:06;103120;;;20.8;42.2
77954;BME280;67151;52.544;6.034;2023-02-04T00:42:21;103109.99999999999;;;20.8;42.1
77954;BME280;67151;52.544;6.034;2023-02-04T00:42:36;103120;;;20.8;42.2
77954;BME280;67151;52.544;6.034;2023-02-04T00:42:51;103120;;;20.8;42.1
77954;BME280;67151;52.544;6.034;2023-02-04T00:43:06;103109.99999999999;;;20.8;42.2
77954;BME280;67151;52.544;6.034;2023-02-04T00:43:21;103109.99999999999;;;20.8;42.2
77954;BME280;67151;52.544;6.034;2023-02-04T00:43:36;103109.99999999999;;;20.8;42.1
77954;BME280;67151;52.544;6.034;2023-02-04T00:43:51;103120;;;20.8;42.2
77954;BME280;67151;52.544;6.034;2023-02-04T00:44:06;103109.99999999999;;;20.9;42.2
77954;BME280;67151;52.544;6.034;2023-02-04T00:44:21;103109.99999999999;;;20.9;42.2
77954;BME280;67151;52.544;6.034;2023-02-04T00:44:36;103120;;;20.8;42.1
77954;BME280;67151;52.544;6.034;2023-02-04T00:44:51;103120;;;20.8;42.2
77954;BME280;67151;52.544;6.034;2023-02-04T00:45:06;103120;;;20.9;42.2
77954;BME280;67151;52.544;6.034;2023-02-04T00:45:21;103109.99999999999;;;20.9;42.2
77954;BME280;67151;52.544;6.034;2023-02-04T00:45:36;103109.99999999999;;;20.9;42.2
77954;BME280;67151;52.544;6.034;2023-02-04T00:45:51;103109.99999999999;;;20.9;42.2
77954;BME280;67151;52.544;6.034;2023-02-04T00:46:06;103109.99999999999;;;20.9;42.1
77954;BME280;67151;52.544;6.034;2023-02-04T00:46:21;103109.99999999999;;;20.9;42.2
77954;BME280;67151;52.544;6.034;2023-02-04T00:46:36;103120;;;20.9;42.1
77954;BME280;67151;52.544;6.034;2023-02-04T00:46:51;103120;;;20.9;42.1
77954;BME280;67151;52.544;6.034;2023-02-04T00:47:06;103109.99999999999;;;20.9;42.1
77954;BME280;67151;52.544;6.034;2023-02-04T00:47:21;103120;;;20.9;42.1
77954;BME280;67151;52.544;6.034;2023-02-04T00:47:36;103120;;;20.9;42.1
77954;BME280;67151;52.544;6.034;2023-02-04T00:47:51;103120;;;20.9;42.1
77954;BME280;67151;52.544;6.034;2023-02-04T00:48:06;103120;;;20.8;42.2
77954;BME280;67151;52.544;6.034;2023-02-04T00:48:21;103120;;;20.8;42.2
77954;BME280;67151;52.544;6.034;2023-02-04T00:48:36;103120;;;20.8;42.3
77954;BME280;67151;52.544;6.034;2023-02-04T00:48:51;103109.99999999999;;;20.9;42.2
77954;BME280;67151;52.544;6.034;2023-02-04T00:49:06;103120;;;20.9;42.2
77954;BME280;67151;52.544;6.034;2023-02-04T00:49:21;103120;;;20.9;42.2
77954;BME280;67151;52.544;6.034;2023-02-04T00:49:36;103120;;;20.9;42.1
77954;BME280;67151;52.544;6.034;2023-02-04T00:49:51;103109.99999999999;;;20.9;42.1
77954;BME280;67151;52.544;6.034;2023-02-04T00:50:06;103120;;;20.9;42.1
77954;BME280;67151;52.544;6.034;2023-02-04T00:50:21;103120;;;20.9;42.1
77954;BME280;67151;52.544;6.034;2023-02-04T00:50:36;103120;;;20.9;42.1
77954;BME280;67151;52.544;6.034;2023-02-04T00:50:51;103120;;;20.9;42.1
77954;BME280;67151;52.544;6.034;2023-02-04T00:51:06;103120;;;20.9;42
77954;BME280;67151;52.544;6.034;2023-02-04T00:51:21;103130;;;20.9;42.1
77954;BME280;67151;52.544;6.034;2023-02-04T00:51:36;103120;;;20.9;42.2
77954;BME280;67151;52.544;6.034;2023-02-04T00:51:51;103130;;;20.9;42.2
77954;BME280;67151;52.544;6.034;2023-02-04T00:52:06;103120;;;20.9;42.1
77954;BME280;67151;52.544;6.034;2023-02-04T00:52:21;103120;;;20.9;42.2
77954;BME280;67151;52.544;6.034;2023-02-04T00:52:36;103120;;;20.9;42.2
77954;BME280;67151;52.544;6.034;2023-02-04T00:52:51;103120;;;20.9;42.1
77954;BME280;67151;52.544;6.034;2023-02-04T00:53:06;103120;;;20.9;42.1
77954;BME280;67151;52.544;6.034;2023-02-04T00:53:21;103130;;;20.9;42.1
77954;BME280;67151;52.544;6.034;2023-02-04T00:53:36;103120;;;20.9;42.1
77954;BME280;67151;52.544;6.034;2023-02-04T00:53:51;103109.99999999999;;;20.9;42.1
77954;BME280;67151;52.544;6.034;2023-02-04T00:54:06;103120;;;20.9;42.2
77954;BME280;67151;52.544;6.034;2023-02-04T00:54:21;103130;;;20.9;42.1
77954;BME280;67151;52.544;6.034;2023-02-04T00:54:36;103120;;;20.9;42.2
77954;BME280;67151;52.544;6.034;2023-02-04T00:54:51;103120;;;20.8;42.2
77954;BME280;67151;52.544;6.034;2023-02-04T00:55:06;103120;;;20.8;42.2
77954;BME280;67151;52.544;6.034;2023-02-04T00:55:21;103120;;;20.8;42.1
77954;BME280;67151;52.544;6.034;2023-02-04T00:55:36;103120;;;20.8;42.2
77954;BME280;67151;52.544;6.034;2023-02-04T00:55:51;103130;;;20.8;42.2
77954;BME280;67151;52.544;6.034;2023-02-04T00:56:06;103120;;;20.9;42.2
77954;BME280;67151;52.544;6.034;2023-02-04T00:56:21;103120;;;20.8;42.2
77954;BME280;67151;52.544;6.034;2023-02-04T00:56:36;103109.99999999999;;;20.9;42.2
77954;BME280;67151;52.544;6.034;2023-02-04T00:56:51;103120;;;20.8;42.2
77954;BME280;67151;52.544;6.034;2023-02-04T00:57:06;103130;;;20.9;42.2
77954;BME280;67151;52.544;6.034;2023-02-04T00:57:21;103120;;;20.9;42.2
77954;BME280;67151;52.544;6.034;2023-02-04T00:57:36;103120;;;20.9;42.2
77954;BME280;67151;52.544;6.034;2023-02-04T00:57:51;103120;;;20.8;42.2
77954;BME280;67151;52.544;6.034;2023-02-04T00:58:06;103120;;;20.9;42.2
77954;BME280;67151;52.544;6.034;2023-02-04T00:58:21;103120;;;20.9;42.1
77954;BME280;67151;52.544;6.034;2023-02-04T00:58:36;103120;;;20.9;42.2
77954;BME280;67151;52.544;6.034;2023-02-04T00:58:51;103130;;;20.9;42.2
77954;BME280;67151;52.544;6.034;2023-02-04T00:59:06;103120;;;20.9;42.1
77954;BME280;67151;52.544;6.034;2023-02-04T00:59:21;103130;;;20.9;42.1
77954;BME280;67151;52.544;6.034;2023-02-04T00:59:36;103130;;;20.9;42.1
77954;BME280;67151;52.544;6.034;2023-02-04T00:59:51;103130;;;20.9;42.1
77954;BME280;67151;52.544;6.034;2023-02-04T01:00:06;103130;;;20.9;42.1
77954;BME280;67151;52.544;6.034;2023-02-04T01:00:21;103130;;;20.9;42.1
77954;BME280;67151;52.544;6.034;2023-02-04T01:00:36;103130;;;20.9;42.1
77954;BME280;67151;52.544;6.034;2023-02-04T01:00:51;103130;;;20.9;42.1
77954;BME280;67151;52.544;6.034;2023-02-04T01:01:06;103130;;;20.9;42.2
77954;BME280;67151;52.544;6.034;2023-02-04T01:01:21;103130;;;20.9;42.1
77954;BME280;67151;52.544;6.034;2023-02-04T01:01:36;103130;;;20.9;42.1
77954;BME280;67151;52.544;6.034;2023-02-04T01:01:51;103130;;;20.9;42.1
77954;BME280;67151;52.544;6.034;2023-02-04T01:02:06;103130;;;20.9;42.1
77954;BME280;67151;52.544;6.034;2023-02-04T01:02:21;103130;;;20.9;42.1
77954;BME280;67151;52.544;6.034;2023-02-04T01:02:36;103140.00000000001;;;20.9;42.2
77954;BME280;67151;52.544;6.034;2023-02-04T01:02:51;103140.00000000001;;;20.9;42.2
77954;BME280;67151;52.544;6.034;2023-02-04T01:03:06;103140.00000000001;;;20.9;42.2
77954;BME280;67151;52.544;6.034;2023-02-04T01:03:21;103130;;;20.9;42.1
77954;BME280;67151;52.544;6.034;2023-02-04T01:03:36;103130;;;20.9;42.2
77954;BME280;67151;52.544;6.034;2023-02-04T01:03:51;103130;;;20.9;42.2
77954;BME280;67151;52.544;6.034;2023-02-04T01:04:06;103130;;;20.9;42.1
77954;BME280;67151;52.544;6.034;2023-02-04T01:04:21;103130;;;20.9;42.1
77954;BME280;67151;52.544;6.034;2023-02-04T01:04:36;103140.00000000001;;;20.9;42.1
77954;BME280;67151;52.544;6.034;2023-02-04T01:04:51;103130;;;20.9;42.1
77954;BME280;67151;52.544;6.034;2023-02-04T01:05:06;103130;;;20.9;42.1
77954;BME280;67151;52.544;6.034;2023-02-04T01:05:21;103130;;;20.9;42.2
77954;BME280;67151;52.544;6.034;2023-02-04T01:05:36;103130;;;20.9;42.1
77954;BME280;67151;52.544;6.034;2023-02-04T01:05:51;103130;;;20.9;42.2
77954;BME280;67151;52.544;6.034;2023-02-04T01:06:06;103130;;;20.9;42.2
77954;BME280;67151;52.544;6.034;2023-02-04T01:06:21;103140.00000000001;;;20.9;42.1
77954;BME280;67151;52.544;6.034;2023-02-04T01:06:36;103140.00000000001;;;20.9;42.1
77954;BME280;67151;52.544;6.034;2023-02-04T01:06:51;103140.00000000001;;;20.9;42.2
77954;BME280;67151;52.544;6.034;2023-02-04T01:07:06;103130;;;20.9;42.2
77954;BME280;67151;52.544;6.034;2023-02-04T01:07:21;103130;;;20.9;42.2
77954;BME280;67151;52.544;6.034;2023-02-04T01:07:36;103140.00000000001;;;20.9;42.2
77954;BME280;67151;52.544;6.034;2023-02-04T01:07:51;103130;;;20.9;42.2
77954;BME280;67151;52.544;6.034;2023-02-04T01:08:06;103130;;;20.9;42.2
77954;BME280;67151;52.544;6.034;2023-02-04T01:08:21;103130;;;20.9;42.2
77954;BME280;67151;52.544;6.034;2023-02-04T01:08:36;103130;;;20.9;42.2
77954;BME280;67151;52.544;6.034;2023-02-04T01:08:51;103130;;;20.9;42.1
77954;BME280;67151;52.544;6.034;2023-02-04T01:09:06;103140.00000000001;;;20.9;42.1
77954;BME280;67151;52.544;6.034;2023-02-04T01:09:21;103130;;;20.9;42.1
77954;BME280;67151;52.544;6.034;2023-02-04T01:09:36;103130;;;20.9;42.2
77954;BME280;67151;52.544;6.034;2023-02-04T01:09:51;103140.00000000001;;;20.9;42.1
77954;BME280;67151;52.544;6.034;2023-02-04T01:10:06;103130;;;20.9;42.1
77954;BME280;67151;52.544;6.034;2023-02-04T01:10:21;103140.00000000001;;;20.9;42.1
77954;BME280;67151;52.544;6.034;2023-02-04T01:10:36;103140.00000000001;;;20.9;42.1
77954;BME280;67151;52.544;6.034;2023-02-04T01:10:51;103140.00000000001;;;20.9;42.1
77954;BME280;67151;52.544;6.034;2023-02-04T01:11:06;103130;;;20.9;42.2
77954;BME280;67151;52.544;6.034;2023-02-04T01:11:21;103130;;;20.9;42.2
77954;BME280;67151;52.544;6.034;2023-02-04T01:11:36;103130;;;20.9;42.2
77954;BME280;67151;52.544;6.034;2023-02-04T01:11:51;103140.00000000001;;;20.9;42.2
77954;BME280;67151;52.544;6.034;2023-02-04T01:12:06;103140.00000000001;;;20.9;42.2
77954;BME280;67151;52.544;6.034;2023-02-04T01:12:21;103130;;;20.9;42.2
77954;BME280;67151;52.544;6.034;2023-02-04T01:12:36;103140.00000000001;;;20.9;42.2
77954;BME280;67151;52.544;6.034;2023-02-04T01:12:51;103140.00000000001;;;20.9;42.2
77954;BME280;67151;52.544;6.034;2023-02-04T01:13:06;103130;;;20.8;42.3
77954;BME280;67151;52.544;6.034;2023-02-04T01:13:21;103140.00000000001;;;20.8;42.2
77954;BME280;67151;52.544;6.034;2023-02-04T01:13:36;103140.00000000001;;;20.8;42.2
77954;BME280;67151;52.544;6.034;2023-02-04T01:13:51;103140.00000000001;;;20.8;42.2
77954;BME280;67151;52.544;6.034;2023-02-04T01:14:06;103140.00000000001;;;20.9;42.2
77954;BME280;67151;52.544;6.034;2023-02-04T01:14:21;103140.00000000001;;;20.9;42.2
77954;BME280;67151;52.544;6.034;2023-02-04T01:14:36;103130;;;20.9;42.2
77954;BME280;67151;52.544;6.034;2023-02-04T01:14:51;103140.00000000001;;;20.9;42.2
77954;BME280;67151;52.544;6.034;2023-02-04T01:15:06;103140.00000000001;;;20.9;42.1
77954;BME280;67151;52.544;6.034;2023-02-04T01:15:21;103140.00000000001;;;20.9;42.2
77954;BME280;67151;52.544;6.034;2023-02-04T01:15:36;103140.00000000001;;;20.9;42.2
77954;BME280;67151;52.544;6.034;2023-02-04T01:15:51;103140.00000000001;;;20.9;42.2
77954;BME280;67151;52.544;6.034;2023-02-04T01:16:06;103140.00000000001;;;20.8;42.2
77954;BME280;67151;52.544;6.034;2023-02-04T01:16:21;103140.00000000001;;;20.8;42.2
77954;BME280;67151;52.544;6.034;2023-02-04T01:16:36;103140.00000000001;;;20.9;42.2
77954;BME280;67151;52.544;6.034;2023-02-04T01:16:51;103140.00000000001;;;20.8;42.2
77954;BME280;67151;52.544;6.034;2023-02-04T01:17:06;103150;;;20.9;42.2
77954;BME280;67151;52.544;6.034;2023-02-04T01:17:21;103140.00000000001;;;20.8;42.3
77954;BME280;67151;52.544;6.034;2023-02-04T01:17:36;103140.00000000001;;;20.8;42.2
77954;BME280;67151;52.544;6.034;2023-02-04T01:17:51;103150;;;20.9;42.2
77954;BME280;67151;52.544;6.034;2023-02-04T01:18:06;103140.00000000001;;;20.8;42.2
77954;BME280;67151;52.544;6.034;2023-02-04T01:18:21;103150;;;20.8;42.2